Feeding Hills, Massachusetts
Current Conditions -  °F | °C
As of 10:11 AM on Wednesday 26 Nov 2014 (Local Time) from KBAF Reporting Station
Light Snow Light Snow  
Wind Chill: 30°   Ceiling: 1400
Heat Index: 34°   Visibility: 1.5mi
Dew Point: 31°   Wind: 5mph
Humidity: 89%   Direction: 340°NNW
Pressure: 30.17"   Gusts: NA
Location:  42.07°N, 72.68°W
Report Text: KBAF 261511Z 34004KT 1 1/2SM R20/5000VP6000FT -SN BR FEW008 OVC014 01/M01 A3017 RMK AO2 PRESRR P0003 T00111006
Loading
Personal Weather Stations






























Interactive Weather Map New forecast layout! Learn more

10-Day Weather Forecast

Advertisements
Track Severe Weather on mobile